sensor_id;sensor_type;location;lat;lon;timestamp;P1;durP1;ratioP1;P2;durP2;ratioP2
32032;SDS011;31720;52.638;9.216;2023-06-10T00:02:55;3.42;;;2.30;;
32032;SDS011;31720;52.638;9.216;2023-06-10T00:05:57;6.38;;;2.72;;
32032;SDS011;31720;52.638;9.216;2023-06-10T00:08:58;4.72;;;2.40;;
32032;SDS011;31720;52.638;9.216;2023-06-10T00:12:01;4.93;;;2.60;;
32032;SDS011;31720;52.638;9.216;2023-06-10T00:15:02;5.03;;;2.13;;
32032;SDS011;31720;52.638;9.216;2023-06-10T00:18:05;6.35;;;2.13;;
32032;SDS011;31720;52.638;9.216;2023-06-10T00:21:10;5.18;;;2.30;;
32032;SDS011;31720;52.638;9.216;2023-06-10T00:24:13;8.95;;;2.28;;
32032;SDS011;31720;52.638;9.216;2023-06-10T00:27:14;7.07;;;2.40;;
32032;SDS011;31720;52.638;9.216;2023-06-10T00:30:16;3.92;;;2.45;;
32032;SDS011;31720;52.638;9.216;2023-06-10T00:33:19;4.15;;;2.35;;
32032;SDS011;31720;52.638;9.216;2023-06-10T00:36:20;6.30;;;2.60;;
32032;SDS011;31720;52.638;9.216;2023-06-10T00:39:22;4.65;;;2.58;;
32032;SDS011;31720;52.638;9.216;2023-06-10T00:42:23;7.35;;;2.03;;
32032;SDS011;31720;52.638;9.216;2023-06-10T00:45:25;6.90;;;2.50;;
32032;SDS011;31720;52.638;9.216;2023-06-10T00:48:28;3.95;;;2.33;;
32032;SDS011;31720;52.638;9.216;2023-06-10T00:51:29;5.22;;;2.00;;
32032;SDS011;31720;52.638;9.216;2023-06-10T00:54:31;2.88;;;2.10;;
32032;SDS011;31720;52.638;9.216;2023-06-10T00:57:32;3.97;;;2.20;;
32032;SDS011;31720;52.638;9.216;2023-06-10T01:00:34;6.13;;;2.25;;
32032;SDS011;31720;52.638;9.216;2023-06-10T01:03:37;3.92;;;1.80;;
32032;SDS011;31720;52.638;9.216;2023-06-10T01:06:41;4.25;;;2.40;;
32032;SDS011;31720;52.638;9.216;2023-06-10T01:09:54;3.38;;;1.95;;
32032;SDS011;31720;52.638;9.216;2023-06-10T01:13:00;3.92;;;1.98;;
32032;SDS011;31720;52.638;9.216;2023-06-10T01:16:03;7.07;;;2.17;;
32032;SDS011;31720;52.638;9.216;2023-06-10T01:19:07;5.15;;;2.10;;
32032;SDS011;31720;52.638;9.216;2023-06-10T01:22:10;3.50;;;1.90;;
32032;SDS011;31720;52.638;9.216;2023-06-10T01:25:15;3.20;;;1.70;;
32032;SDS011;31720;52.638;9.216;2023-06-10T01:28:18;3.38;;;2.10;;
32032;SDS011;31720;52.638;9.216;2023-06-10T01:31:29;3.10;;;1.98;;
32032;SDS011;31720;52.638;9.216;2023-06-10T01:34:36;5.07;;;1.90;;
32032;SDS011;31720;52.638;9.216;2023-06-10T01:37:41;5.07;;;2.03;;
32032;SDS011;31720;52.638;9.216;2023-06-10T01:40:46;2.80;;;1.67;;
32032;SDS011;31720;52.638;9.216;2023-06-10T01:43:50;3.63;;;1.90;;
32032;SDS011;31720;52.638;9.216;2023-06-10T01:46:51;3.28;;;2.08;;
32032;SDS011;31720;52.638;9.216;2023-06-10T01:49:52;5.30;;;2.00;;
32032;SDS011;31720;52.638;9.216;2023-06-10T01:52:56;3.35;;;2.50;;
32032;SDS011;31720;52.638;9.216;2023-06-10T01:55:58;3.47;;;1.95;;
32032;SDS011;31720;52.638;9.216;2023-06-10T01:58:59;9.40;;;2.28;;
32032;SDS011;31720;52.638;9.216;2023-06-10T02:02:01;4.13;;;2.20;;
32032;SDS011;31720;52.638;9.216;2023-06-10T02:05:02;4.95;;;2.25;;
32032;SDS011;31720;52.638;9.216;2023-06-10T02:08:06;4.15;;;2.10;;
32032;SDS011;31720;52.638;9.216;2023-06-10T02:11:07;2.92;;;1.90;;
32032;SDS011;31720;52.638;9.216;2023-06-10T02:14:09;2.25;;;1.73;;
32032;SDS011;31720;52.638;9.216;2023-06-10T02:17:10;4.53;;;2.13;;
32032;SDS011;31720;52.638;9.216;2023-06-10T02:20:14;4.35;;;1.90;;
32032;SDS011;31720;52.638;9.216;2023-06-10T02:23:17;5.05;;;2.10;;
32032;SDS011;31720;52.638;9.216;2023-06-10T02:26:18;4.03;;;1.90;;
32032;SDS011;31720;52.638;9.216;2023-06-10T02:29:21;4.07;;;1.88;;
32032;SDS011;31720;52.638;9.216;2023-06-10T02:32:22;6.43;;;2.05;;
32032;SDS011;31720;52.638;9.216;2023-06-10T02:35:23;4.82;;;1.90;;
32032;SDS011;31720;52.638;9.216;2023-06-10T02:38:26;5.93;;;2.47;;
32032;SDS011;31720;52.638;9.216;2023-06-10T02:41:27;4.65;;;2.42;;
32032;SDS011;31720;52.638;9.216;2023-06-10T02:44:29;6.45;;;2.33;;
32032;SDS011;31720;52.638;9.216;2023-06-10T02:47:30;4.05;;;1.98;;
32032;SDS011;31720;52.638;9.216;2023-06-10T02:50:31;6.03;;;2.75;;
32032;SDS011;31720;52.638;9.216;2023-06-10T02:53:34;6.05;;;2.33;;
32032;SDS011;31720;52.638;9.216;2023-06-10T02:56:35;5.32;;;2.42;;
32032;SDS011;31720;52.638;9.216;2023-06-10T02:59:37;7.32;;;2.17;;
32032;SDS011;31720;52.638;9.216;2023-06-10T03:02:38;4.50;;;1.90;;
32032;SDS011;31720;52.638;9.216;2023-06-10T03:05:40;5.50;;;2.17;;
32032;SDS011;31720;52.638;9.216;2023-06-10T03:08:42;3.83;;;2.25;;
32032;SDS011;31720;52.638;9.216;2023-06-10T03:11:45;3.95;;;2.13;;
32032;SDS011;31720;52.638;9.216;2023-06-10T03:14:46;3.08;;;1.83;;
32032;SDS011;31720;52.638;9.216;2023-06-10T03:17:48;3.88;;;2.33;;
32032;SDS011;31720;52.638;9.216;2023-06-10T03:20:49;6.70;;;2.83;;
32032;SDS011;31720;52.638;9.216;2023-06-10T03:23:53;5.07;;;2.58;;
32032;SDS011;31720;52.638;9.216;2023-06-10T03:26:54;5.22;;;2.22;;
32032;SDS011;31720;52.638;9.216;2023-06-10T03:29:56;4.97;;;2.58;;
32032;SDS011;31720;52.638;9.216;2023-06-10T03:32:57;5.60;;;2.35;;
32032;SDS011;31720;52.638;9.216;2023-06-10T03:35:59;5.00;;;2.00;;
32032;SDS011;31720;52.638;9.216;2023-06-10T03:39:01;11.35;;;2.53;;
32032;SDS011;31720;52.638;9.216;2023-06-10T03:42:03;6.03;;;2.10;;
32032;SDS011;31720;52.638;9.216;2023-06-10T03:45:05;9.38;;;2.40;;
32032;SDS011;31720;52.638;9.216;2023-06-10T03:48:07;5.70;;;2.35;;
32032;SDS011;31720;52.638;9.216;2023-06-10T03:51:09;7.10;;;1.80;;
32032;SDS011;31720;52.638;9.216;2023-06-10T03:54:11;4.05;;;2.05;;
32032;SDS011;31720;52.638;9.216;2023-06-10T03:57:13;4.90;;;2.53;;
32032;SDS011;31720;52.638;9.216;2023-06-10T04:00:14;5.00;;;2.08;;
32032;SDS011;31720;52.638;9.216;2023-06-10T04:03:17;5.88;;;2.60;;
32032;SDS011;31720;52.638;9.216;2023-06-10T04:06:21;3.90;;;2.38;;
32032;SDS011;31720;52.638;9.216;2023-06-10T04:09:26;5.55;;;2.30;;
32032;SDS011;31720;52.638;9.216;2023-06-10T04:12:27;5.05;;;2.85;;
32032;SDS011;31720;52.638;9.216;2023-06-10T04:15:29;4.10;;;1.80;;
32032;SDS011;31720;52.638;9.216;2023-06-10T04:18:32;4.22;;;2.53;;
32032;SDS011;31720;52.638;9.216;2023-06-10T04:21:34;5.07;;;2.60;;
32032;SDS011;31720;52.638;9.216;2023-06-10T04:24:37;4.80;;;2.35;;
32032;SDS011;31720;52.638;9.216;2023-06-10T04:27:38;4.70;;;2.17;;
32032;SDS011;31720;52.638;9.216;2023-06-10T04:30:39;5.43;;;2.45;;
32032;SDS011;31720;52.638;9.216;2023-06-10T04:33:41;5.18;;;2.60;;
32032;SDS011;31720;52.638;9.216;2023-06-10T04:36:43;5.45;;;2.80;;
32032;SDS011;31720;52.638;9.216;2023-06-10T04:39:45;10.23;;;2.75;;
32032;SDS011;31720;52.638;9.216;2023-06-10T04:42:47;4.95;;;2.53;;
32032;SDS011;31720;52.638;9.216;2023-06-10T04:45:48;5.47;;;2.50;;
32032;SDS011;31720;52.638;9.216;2023-06-10T04:48:49;4.82;;;2.63;;
32032;SDS011;31720;52.638;9.216;2023-06-10T04:51:51;5.93;;;2.72;;
32032;SDS011;31720;52.638;9.216;2023-06-10T04:54:53;5.43;;;2.95;;
32032;SDS011;31720;52.638;9.216;2023-06-10T04:57:55;3.25;;;2.38;;
32032;SDS011;31720;52.638;9.216;2023-06-10T05:00:57;6.75;;;2.40;;
32032;SDS011;31720;52.638;9.216;2023-06-10T05:03:59;4.28;;;2.70;;
32032;SDS011;31720;52.638;9.216;2023-06-10T05:07:01;12.40;;;3.05;;
32032;SDS011;31720;52.638;9.216;2023-06-10T05:10:05;7.13;;;3.40;;
32032;SDS011;31720;52.638;9.216;2023-06-10T05:13:07;26.83;;;8.80;;
32032;SDS011;31720;52.638;9.216;2023-06-10T05:16:08;7.72;;;3.75;;
32032;SDS011;31720;52.638;9.216;2023-06-10T05:19:10;7.15;;;2.90;;
32032;SDS011;31720;52.638;9.216;2023-06-10T05:22:11;6.38;;;2.88;;
32032;SDS011;31720;52.638;9.216;2023-06-10T05:25:14;9.02;;;4.18;;
32032;SDS011;31720;52.638;9.216;2023-06-10T05:28:16;5.90;;;3.40;;
32032;SDS011;31720;52.638;9.216;2023-06-10T05:31:18;6.40;;;3.60;;
32032;SDS011;31720;52.638;9.216;2023-06-10T05:34:19;8.23;;;3.15;;
32032;SDS011;31720;52.638;9.216;2023-06-10T05:37:21;9.73;;;4.00;;
32032;SDS011;31720;52.638;9.216;2023-06-10T05:40:24;7.18;;;3.58;;
32032;SDS011;31720;52.638;9.216;2023-06-10T05:43:25;9.07;;;4.18;;
32032;SDS011;31720;52.638;9.216;2023-06-10T05:46:27;7.57;;;3.58;;
32032;SDS011;31720;52.638;9.216;2023-06-10T05:49:28;10.45;;;3.45;;
32032;SDS011;31720;52.638;9.216;2023-06-10T05:52:29;10.20;;;4.82;;
32032;SDS011;31720;52.638;9.216;2023-06-10T05:55:32;10.05;;;3.90;;
32032;SDS011;31720;52.638;9.216;2023-06-10T05:58:33;12.75;;;5.13;;
32032;SDS011;31720;52.638;9.216;2023-06-10T06:01:35;5.45;;;3.55;;
32032;SDS011;31720;52.638;9.216;2023-06-10T06:04:36;4.95;;;3.03;;
32032;SDS011;31720;52.638;9.216;2023-06-10T06:07:37;7.20;;;3.90;;
32032;SDS011;31720;52.638;9.216;2023-06-10T06:10:40;10.85;;;4.40;;
32032;SDS011;31720;52.638;9.216;2023-06-10T06:13:42;7.07;;;4.35;;
32032;SDS011;31720;52.638;9.216;2023-06-10T06:16:43;9.07;;;3.90;;
32032;SDS011;31720;52.638;9.216;2023-06-10T06:19:44;8.77;;;4.03;;
32032;SDS011;31720;52.638;9.216;2023-06-10T06:22:48;8.02;;;4.32;;
32032;SDS011;31720;52.638;9.216;2023-06-10T06:25:51;9.40;;;4.10;;
32032;SDS011;31720;52.638;9.216;2023-06-10T06:28:52;4.72;;;2.88;;
32032;SDS011;31720;52.638;9.216;2023-06-10T06:31:53;12.00;;;4.10;;
32032;SDS011;31720;52.638;9.216;2023-06-10T06:34:55;8.40;;;4.20;;
32032;SDS011;31720;52.638;9.216;2023-06-10T06:37:56;8.10;;;4.05;;
32032;SDS011;31720;52.638;9.216;2023-06-10T06:41:00;7.32;;;3.70;;
32032;SDS011;31720;52.638;9.216;2023-06-10T06:44:03;7.13;;;4.03;;
32032;SDS011;31720;52.638;9.216;2023-06-10T06:47:05;8.20;;;3.95;;
32032;SDS011;31720;52.638;9.216;2023-06-10T06:50:07;10.55;;;4.50;;
32032;SDS011;31720;52.638;9.216;2023-06-10T06:53:09;7.80;;;3.97;;
32032;SDS011;31720;52.638;9.216;2023-06-10T06:56:11;6.43;;;3.75;;
32032;SDS011;31720;52.638;9.216;2023-06-10T06:59:13;9.35;;;3.90;;
32032;SDS011;31720;52.638;9.216;2023-06-10T07:02:14;8.95;;;4.00;;
32032;SDS011;31720;52.638;9.216;2023-06-10T07:05:16;7.60;;;4.35;;
32032;SDS011;31720;52.638;9.216;2023-06-10T07:08:17;9.50;;;3.90;;
32032;SDS011;31720;52.638;9.216;2023-06-10T07:11:20;6.90;;;4.10;;
32032;SDS011;31720;52.638;9.216;2023-06-10T07:14:22;7.95;;;3.85;;
32032;SDS011;31720;52.638;9.216;2023-06-10T07:17:23;7.65;;;4.32;;
32032;SDS011;31720;52.638;9.216;2023-06-10T07:20:24;6.47;;;4.20;;
32032;SDS011;31720;52.638;9.216;2023-06-10T07:23:26;5.95;;;3.70;;
32032;SDS011;31720;52.638;9.216;2023-06-10T07:26:28;8.30;;;4.13;;
32032;SDS011;31720;52.638;9.216;2023-06-10T07:29:30;10.60;;;4.18;;
32032;SDS011;31720;52.638;9.216;2023-06-10T07:32:31;10.25;;;3.90;;
32032;SDS011;31720;52.638;9.216;2023-06-10T07:35:32;8.05;;;4.63;;
32032;SDS011;31720;52.638;9.216;2023-06-10T07:38:34;4.95;;;3.22;;
32032;SDS011;31720;52.638;9.216;2023-06-10T07:41:37;10.45;;;3.95;;
32032;SDS011;31720;52.638;9.216;2023-06-10T07:44:38;8.52;;;3.95;;
32032;SDS011;31720;52.638;9.216;2023-06-10T07:47:39;9.38;;;4.22;;
32032;SDS011;31720;52.638;9.216;2023-06-10T07:50:41;6.63;;;3.92;;
32032;SDS011;31720;52.638;9.216;2023-06-10T07:53:42;10.05;;;3.83;;
32032;SDS011;31720;52.638;9.216;2023-06-10T07:56:45;8.43;;;4.10;;
32032;SDS011;31720;52.638;9.216;2023-06-10T07:59:46;8.15;;;3.10;;
32032;SDS011;31720;52.638;9.216;2023-06-10T08:02:48;5.15;;;3.78;;
32032;SDS011;31720;52.638;9.216;2023-06-10T08:05:50;5.43;;;3.25;;
32032;SDS011;31720;52.638;9.216;2023-06-10T08:08:51;7.40;;;3.53;;
32032;SDS011;31720;52.638;9.216;2023-06-10T08:11:54;6.78;;;3.65;;
32032;SDS011;31720;52.638;9.216;2023-06-10T08:14:56;5.63;;;3.63;;
32032;SDS011;31720;52.638;9.216;2023-06-10T08:17:57;6.38;;;3.17;;
32032;SDS011;31720;52.638;9.216;2023-06-10T08:20:58;6.63;;;4.00;;
32032;SDS011;31720;52.638;9.216;2023-06-10T08:24:00;6.25;;;3.67;;
32032;SDS011;31720;52.638;9.216;2023-06-10T08:27:03;10.25;;;4.05;;
32032;SDS011;31720;52.638;9.216;2023-06-10T08:30:06;8.23;;;3.97;;
32032;SDS011;31720;52.638;9.216;2023-06-10T08:33:10;10.25;;;3.70;;
32032;SDS011;31720;52.638;9.216;2023-06-10T08:36:11;9.02;;;3.95;;
32032;SDS011;31720;52.638;9.216;2023-06-10T08:39:12;8.63;;;4.10;;
32032;SDS011;31720;52.638;9.216;2023-06-10T08:42:17;7.22;;;3.60;;
32032;SDS011;31720;52.638;9.216;2023-06-10T08:45:25;5.72;;;3.35;;
32032;SDS011;31720;52.638;9.216;2023-06-10T08:48:31;5.70;;;3.60;;
32032;SDS011;31720;52.638;9.216;2023-06-10T08:51:35;5.45;;;3.38;;
32032;SDS011;31720;52.638;9.216;2023-06-10T08:54:37;7.43;;;3.55;;
32032;SDS011;31720;52.638;9.216;2023-06-10T08:57:41;8.32;;;3.88;;
32032;SDS011;31720;52.638;9.216;2023-06-10T09:00:44;7.88;;;3.55;;
32032;SDS011;31720;52.638;9.216;2023-06-10T09:03:46;8.25;;;3.40;;
32032;SDS011;31720;52.638;9.216;2023-06-10T09:06:48;6.53;;;3.22;;
32032;SDS011;31720;52.638;9.216;2023-06-10T09:09:50;9.30;;;3.55;;
32032;SDS011;31720;52.638;9.216;2023-06-10T09:12:55;4.47;;;2.90;;
32032;SDS011;31720;52.638;9.216;2023-06-10T09:15:56;5.22;;;3.05;;
32032;SDS011;31720;52.638;9.216;2023-06-10T09:19:01;6.50;;;3.28;;
32032;SDS011;31720;52.638;9.216;2023-06-10T09:22:07;9.90;;;3.20;;
32032;SDS011;31720;52.638;9.216;2023-06-10T09:25:10;8.05;;;3.22;;
32032;SDS011;31720;52.638;9.216;2023-06-10T09:28:14;7.28;;;3.35;;
32032;SDS011;31720;52.638;9.216;2023-06-10T09:31:16;6.53;;;2.92;;
32032;SDS011;31720;52.638;9.216;2023-06-10T09:34:18;7.40;;;2.80;;
32032;SDS011;31720;52.638;9.216;2023-06-10T09:37:20;6.50;;;3.10;;
32032;SDS011;31720;52.638;9.216;2023-06-10T09:40:22;9.18;;;3.50;;
32032;SDS011;31720;52.638;9.216;2023-06-10T09:43:25;6.32;;;3.17;;
32032;SDS011;31720;52.638;9.216;2023-06-10T09:46:40;6.05;;;3.35;;
32032;SDS011;31720;52.638;9.216;2023-06-10T09:49:42;6.57;;;2.83;;
32032;SDS011;31720;52.638;9.216;2023-06-10T09:52:43;5.97;;;3.00;;
32032;SDS011;31720;52.638;9.216;2023-06-10T09:55:46;4.45;;;3.22;;
32032;SDS011;31720;52.638;9.216;2023-06-10T09:58:49;5.60;;;2.63;;
32032;SDS011;31720;52.638;9.216;2023-06-10T10:01:54;5.97;;;2.95;;
32032;SDS011;31720;52.638;9.216;2023-06-10T10:04:59;6.20;;;2.83;;
32032;SDS011;31720;52.638;9.216;2023-06-10T10:08:04;6.38;;;2.95;;
32032;SDS011;31720;52.638;9.216;2023-06-10T10:11:05;8.00;;;2.67;;
32032;SDS011;31720;52.638;9.216;2023-06-10T10:14:08;5.53;;;2.88;;
32032;SDS011;31720;52.638;9.216;2023-06-10T10:17:10;4.95;;;2.45;;
32032;SDS011;31720;52.638;9.216;2023-06-10T10:20:12;4.18;;;2.70;;
32032;SDS011;31720;52.638;9.216;2023-06-10T10:23:16;7.53;;;2.97;;
32032;SDS011;31720;52.638;9.216;2023-06-10T10:26:22;4.43;;;2.70;;
32032;SDS011;31720;52.638;9.216;2023-06-10T10:29:30;5.90;;;2.58;;
32032;SDS011;31720;52.638;9.216;2023-06-10T10:32:35;4.55;;;2.47;;
32032;SDS011;31720;52.638;9.216;2023-06-10T10:35:39;5.82;;;2.53;;
32032;SDS011;31720;52.638;9.216;2023-06-10T10:38:41;6.43;;;2.80;;
32032;SDS011;31720;52.638;9.216;2023-06-10T10:41:43;8.27;;;2.60;;
32032;SDS011;31720;52.638;9.216;2023-06-10T10:44:46;3.30;;;2.33;;
32032;SDS011;31720;52.638;9.216;2023-06-10T10:47:52;3.88;;;2.50;;
32032;SDS011;31720;52.638;9.216;2023-06-10T10:50:56;4.88;;;2.55;;
32032;SDS011;31720;52.638;9.216;2023-06-10T10:54:10;3.75;;;2.45;;
32032;SDS011;31720;52.638;9.216;2023-06-10T10:57:14;4.07;;;2.65;;
32032;SDS011;31720;52.638;9.216;2023-06-10T11:00:25;4.25;;;2.40;;
32032;SDS011;31720;52.638;9.216;2023-06-10T11:03:29;5.25;;;2.13;;
32032;SDS011;31720;52.638;9.216;2023-06-10T11:06:31;3.30;;;2.50;;
32032;SDS011;31720;52.638;9.216;2023-06-10T11:09:32;6.00;;;2.22;;
32032;SDS011;31720;52.638;9.216;2023-06-10T11:12:40;3.10;;;2.40;;
32032;SDS011;31720;52.638;9.216;2023-06-10T11:15:57;7.13;;;2.58;;
32032;SDS011;31720;52.638;9.216;2023-06-10T11:18:59;6.18;;;3.03;;
32032;SDS011;31720;52.638;9.216;2023-06-10T11:22:00;3.67;;;2.17;;
32032;SDS011;31720;52.638;9.216;2023-06-10T11:25:03;4.57;;;2.58;;
32032;SDS011;31720;52.638;9.216;2023-06-10T11:28:17;4.85;;;2.40;;
32032;SDS011;31720;52.638;9.216;2023-06-10T11:31:21;4.68;;;2.60;;
32032;SDS011;31720;52.638;9.216;2023-06-10T11:34:24;5.75;;;2.60;;
32032;SDS011;31720;52.638;9.216;2023-06-10T11:37:27;4.22;;;2.45;;
32032;SDS011;31720;52.638;9.216;2023-06-10T11:40:28;4.35;;;2.35;;
32032;SDS011;31720;52.638;9.216;2023-06-10T11:43:30;3.30;;;1.75;;
32032;SDS011;31720;52.638;9.216;2023-06-10T11:46:33;5.32;;;1.88;;
32032;SDS011;31720;52.638;9.216;2023-06-10T11:49:35;4.28;;;1.85;;
32032;SDS011;31720;52.638;9.216;2023-06-10T11:52:36;2.90;;;1.50;;
32032;SDS011;31720;52.638;9.216;2023-06-10T11:55:41;2.95;;;1.73;;
32032;SDS011;31720;52.638;9.216;2023-06-10T11:58:43;5.10;;;2.10;;
32032;SDS011;31720;52.638;9.216;2023-06-10T12:01:47;4.82;;;1.88;;
32032;SDS011;31720;52.638;9.216;2023-06-10T12:04:48;5.32;;;2.08;;
32032;SDS011;31720;52.638;9.216;2023-06-10T12:07:50;3.88;;;1.90;;
32032;SDS011;31720;52.638;9.216;2023-06-10T12:11:09;2.80;;;1.98;;
32032;SDS011;31720;52.638;9.216;2023-06-10T12:14:11;7.15;;;1.83;;
32032;SDS011;31720;52.638;9.216;2023-06-10T12:17:13;3.05;;;1.98;;
32032;SDS011;31720;52.638;9.216;2023-06-10T12:20:24;2.22;;;1.90;;
32032;SDS011;31720;52.638;9.216;2023-06-10T12:23:26;5.95;;;3.00;;
32032;SDS011;31720;52.638;9.216;2023-06-10T12:26:33;4.55;;;2.35;;
32032;SDS011;31720;52.638;9.216;2023-06-10T12:29:36;4.43;;;2.50;;
32032;SDS011;31720;52.638;9.216;2023-06-10T12:32:42;3.83;;;2.42;;
32032;SDS011;31720;52.638;9.216;2023-06-10T12:35:47;4.28;;;2.40;;
32032;SDS011;31720;52.638;9.216;2023-06-10T12:38:50;3.13;;;2.17;;
32032;SDS011;31720;52.638;9.216;2023-06-10T12:41:52;5.05;;;2.15;;
32032;SDS011;31720;52.638;9.216;2023-06-10T12:44:53;4.15;;;2.58;;
32032;SDS011;31720;52.638;9.216;2023-06-10T12:48:07;7.20;;;2.92;;
32032;SDS011;31720;52.638;9.216;2023-06-10T12:51:10;4.90;;;2.78;;
32032;SDS011;31720;52.638;9.216;2023-06-10T12:54:11;6.85;;;3.35;;
32032;SDS011;31720;52.638;9.216;2023-06-10T12:57:13;3.53;;;2.63;;
32032;SDS011;31720;52.638;9.216;2023-06-10T13:00:15;5.20;;;2.40;;
32032;SDS011;31720;52.638;9.216;2023-06-10T13:03:19;4.13;;;2.70;;
32032;SDS011;31720;52.638;9.216;2023-06-10T13:06:20;2.85;;;2.08;;
32032;SDS011;31720;52.638;9.216;2023-06-10T13:09:22;5.38;;;2.80;;
32032;SDS011;31720;52.638;9.216;2023-06-10T13:12:25;3.38;;;2.45;;
32032;SDS011;31720;52.638;9.216;2023-06-10T13:15:28;4.07;;;2.40;;
32032;SDS011;31720;52.638;9.216;2023-06-10T13:18:31;4.93;;;2.55;;
32032;SDS011;31720;52.638;9.216;2023-06-10T13:21:37;3.80;;;2.38;;
32032;SDS011;31720;52.638;9.216;2023-06-10T13:24:38;5.38;;;2.75;;
32032;SDS011;31720;52.638;9.216;2023-06-10T13:27:40;4.15;;;2.38;;
32032;SDS011;31720;52.638;9.216;2023-06-10T13:30:42;4.32;;;2.35;;
32032;SDS011;31720;52.638;9.216;2023-06-10T13:33:44;4.10;;;2.90;;
32032;SDS011;31720;52.638;9.216;2023-06-10T13:36:47;3.22;;;2.50;;
32032;SDS011;31720;52.638;9.216;2023-06-10T13:39:48;3.35;;;2.15;;
32032;SDS011;31720;52.638;9.216;2023-06-10T13:42:50;5.28;;;2.80;;
32032;SDS011;31720;52.638;9.216;2023-06-10T13:45:54;4.10;;;2.60;;
32032;SDS011;31720;52.638;9.216;2023-06-10T13:48:56;4.70;;;2.53;;
32032;SDS011;31720;52.638;9.216;2023-06-10T13:51:58;5.15;;;2.90;;
32032;SDS011;31720;52.638;9.216;2023-06-10T13:54:59;4.68;;;2.80;;
32032;SDS011;31720;52.638;9.216;2023-06-10T13:58:00;3.58;;;2.70;;
32032;SDS011;31720;52.638;9.216;2023-06-10T14:01:02;4.57;;;2.90;;
32032;SDS011;31720;52.638;9.216;2023-06-10T14:04:04;6.18;;;3.05;;
32032;SDS011;31720;52.638;9.216;2023-06-10T14:07:06;6.07;;;2.70;;
32032;SDS011;31720;52.638;9.216;2023-06-10T14:10:08;6.25;;;3.33;;
32032;SDS011;31720;52.638;9.216;2023-06-10T14:13:10;4.82;;;2.97;;
32032;SDS011;31720;52.638;9.216;2023-06-10T14:16:11;4.75;;;2.70;;
32032;SDS011;31720;52.638;9.216;2023-06-10T14:19:14;4.47;;;2.95;;
32032;SDS011;31720;52.638;9.216;2023-06-10T14:22:15;4.28;;;2.78;;
32032;SDS011;31720;52.638;9.216;2023-06-10T14:25:17;5.72;;;3.30;;
32032;SDS011;31720;52.638;9.216;2023-06-10T14:28:18;5.22;;;3.10;;
32032;SDS011;31720;52.638;9.216;2023-06-10T14:31:19;3.45;;;2.88;;
32032;SDS011;31720;52.638;9.216;2023-06-10T14:34:22;7.72;;;3.10;;
32032;SDS011;31720;52.638;9.216;2023-06-10T14:37:28;3.10;;;2.80;;
32032;SDS011;31720;52.638;9.216;2023-06-10T14:40:29;3.72;;;2.70;;
32032;SDS011;31720;52.638;9.216;2023-06-10T14:43:31;5.72;;;3.67;;
32032;SDS011;31720;52.638;9.216;2023-06-10T14:46:33;5.05;;;2.83;;
32032;SDS011;31720;52.638;9.216;2023-06-10T14:49:35;4.10;;;2.70;;
32032;SDS011;31720;52.638;9.216;2023-06-10T14:52:37;5.72;;;3.15;;
32032;SDS011;31720;52.638;9.216;2023-06-10T14:55:38;5.10;;;3.10;;
32032;SDS011;31720;52.638;9.216;2023-06-10T14:58:40;4.97;;;3.00;;
32032;SDS011;31720;52.638;9.216;2023-06-10T15:01:41;6.85;;;3.05;;
32032;SDS011;31720;52.638;9.216;2023-06-10T15:04:44;3.58;;;2.78;;
32032;SDS011;31720;52.638;9.216;2023-06-10T15:07:45;5.85;;;2.78;;
32032;SDS011;31720;52.638;9.216;2023-06-10T15:10:47;4.88;;;3.05;;
32032;SDS011;31720;52.638;9.216;2023-06-10T15:13:49;4.57;;;2.75;;
32032;SDS011;31720;52.638;9.216;2023-06-10T15:16:50;5.60;;;3.00;;
32032;SDS011;31720;52.638;9.216;2023-06-10T15:19:53;5.25;;;2.80;;
32032;SDS011;31720;52.638;9.216;2023-06-10T15:22:54;5.53;;;3.00;;
32032;SDS011;31720;52.638;9.216;2023-06-10T15:25:55;3.53;;;3.17;;
32032;SDS011;31720;52.638;9.216;2023-06-10T15:28:57;3.50;;;2.80;;
32032;SDS011;31720;52.638;9.216;2023-06-10T15:32:03;4.97;;;3.17;;
32032;SDS011;31720;52.638;9.216;2023-06-10T15:35:07;4.97;;;2.80;;
32032;SDS011;31720;52.638;9.216;2023-06-10T15:38:09;3.38;;;2.70;;
32032;SDS011;31720;52.638;9.216;2023-06-10T15:41:11;6.05;;;2.67;;
32032;SDS011;31720;52.638;9.216;2023-06-10T15:44:12;4.70;;;3.50;;
32032;SDS011;31720;52.638;9.216;2023-06-10T15:47:13;5.25;;;3.10;;
32032;SDS011;31720;52.638;9.216;2023-06-10T15:50:16;4.72;;;3.03;;
32032;SDS011;31720;52.638;9.216;2023-06-10T15:53:17;4.35;;;2.90;;
32032;SDS011;31720;52.638;9.216;2023-06-10T15:56:19;7.22;;;3.15;;
32032;SDS011;31720;52.638;9.216;2023-06-10T15:59:20;5.50;;;3.53;;
32032;SDS011;31720;52.638;9.216;2023-06-10T16:02:22;5.88;;;4.07;;
32032;SDS011;31720;52.638;9.216;2023-06-10T16:05:24;4.97;;;2.80;;
32032;SDS011;31720;52.638;9.216;2023-06-10T16:08:26;3.67;;;2.97;;
32032;SDS011;31720;52.638;9.216;2023-06-10T16:11:28;5.13;;;2.80;;
32032;SDS011;31720;52.638;9.216;2023-06-10T16:14:29;3.70;;;2.80;;
32032;SDS011;31720;52.638;9.216;2023-06-10T16:17:31;4.03;;;3.00;;
32032;SDS011;31720;52.638;9.216;2023-06-10T16:20:34;6.20;;;2.60;;
32032;SDS011;31720;52.638;9.216;2023-06-10T16:23:35;6.53;;;3.13;;
32032;SDS011;31720;52.638;9.216;2023-06-10T16:26:38;6.88;;;2.50;;
32032;SDS011;31720;52.638;9.216;2023-06-10T16:29:40;4.20;;;2.60;;
32032;SDS011;31720;52.638;9.216;2023-06-10T16:32:41;3.90;;;2.47;;
32032;SDS011;31720;52.638;9.216;2023-06-10T16:35:44;6.05;;;3.45;;
32032;SDS011;31720;52.638;9.216;2023-06-10T16:38:45;4.93;;;2.97;;
32032;SDS011;31720;52.638;9.216;2023-06-10T16:41:47;9.73;;;3.17;;
32032;SDS011;31720;52.638;9.216;2023-06-10T16:44:48;4.88;;;3.42;;
32032;SDS011;31720;52.638;9.216;2023-06-10T16:47:50;5.43;;;3.58;;
32032;SDS011;31720;52.638;9.216;2023-06-10T16:50:52;7.35;;;3.72;;
32032;SDS011;31720;52.638;9.216;2023-06-10T16:53:54;4.60;;;3.40;;
32032;SDS011;31720;52.638;9.216;2023-06-10T16:56:55;6.28;;;3.05;;
32032;SDS011;31720;52.638;9.216;2023-06-10T16:59:56;5.03;;;2.92;;
32032;SDS011;31720;52.638;9.216;2023-06-10T17:02:58;3.30;;;2.72;;
32032;SDS011;31720;52.638;9.216;2023-06-10T17:06:01;4.20;;;2.80;;
32032;SDS011;31720;52.638;9.216;2023-06-10T17:09:02;4.75;;;2.95;;
32032;SDS011;31720;52.638;9.216;2023-06-10T17:12:04;3.70;;;2.92;;
32032;SDS011;31720;52.638;9.216;2023-06-10T17:15:07;4.22;;;2.90;;
32032;SDS011;31720;52.638;9.216;2023-06-10T17:18:08;3.97;;;3.00;;
32032;SDS011;31720;52.638;9.216;2023-06-10T17:21:11;4.18;;;2.95;;
32032;SDS011;31720;52.638;9.216;2023-06-10T17:24:13;4.43;;;2.63;;
32032;SDS011;31720;52.638;9.216;2023-06-10T17:27:14;7.80;;;4.18;;
32032;SDS011;31720;52.638;9.216;2023-06-10T17:30:16;3.72;;;2.92;;
32032;SDS011;31720;52.638;9.216;2023-06-10T17:33:17;4.05;;;3.20;;
32032;SDS011;31720;52.638;9.216;2023-06-10T17:36:20;4.88;;;2.72;;
32032;SDS011;31720;52.638;9.216;2023-06-10T17:39:21;3.88;;;3.03;;
32032;SDS011;31720;52.638;9.216;2023-06-10T17:42:23;4.03;;;2.95;;
32032;SDS011;31720;52.638;9.216;2023-06-10T17:45:24;4.90;;;3.13;;
32032;SDS011;31720;52.638;9.216;2023-06-10T17:48:25;4.95;;;2.70;;
32032;SDS011;31720;52.638;9.216;2023-06-10T17:51:28;4.22;;;2.88;;
32032;SDS011;31720;52.638;9.216;2023-06-10T17:54:29;4.38;;;3.20;;
32032;SDS011;31720;52.638;9.216;2023-06-10T17:57:31;7.93;;;3.47;;
32032;SDS011;31720;52.638;9.216;2023-06-10T18:00:32;6.80;;;3.42;;
32032;SDS011;31720;52.638;9.216;2023-06-10T18:03:34;3.95;;;2.75;;
32032;SDS011;31720;52.638;9.216;2023-06-10T18:06:38;3.85;;;3.00;;
32032;SDS011;31720;52.638;9.216;2023-06-10T18:09:39;3.60;;;2.72;;
32032;SDS011;31720;52.638;9.216;2023-06-10T18:12:40;6.47;;;2.95;;
32032;SDS011;31720;52.638;9.216;2023-06-10T18:15:42;7.43;;;3.28;;
32032;SDS011;31720;52.638;9.216;2023-06-10T18:18:43;9.80;;;2.60;;
32032;SDS011;31720;52.638;9.216;2023-06-10T18:21:47;4.63;;;2.80;;